sensor_id;sensor_type;location;lat;lon;timestamp;P1;durP1;ratioP1;P2;durP2;ratioP2
19883;SDS011;10104;50.732;10.174;2023-08-08T00:00:38;5.43;;;2.33;;
19883;SDS011;10104;50.732;10.174;2023-08-08T00:03:00;7.37;;;2.90;;
19883;SDS011;10104;50.732;10.174;2023-08-08T00:05:22;6.77;;;2.63;;
19883;SDS011;10104;50.732;10.174;2023-08-08T00:07:44;6.07;;;2.63;;
19883;SDS011;10104;50.732;10.174;2023-08-08T00:10:05;5.17;;;2.83;;
19883;SDS011;10104;50.732;10.174;2023-08-08T00:12:27;6.07;;;3.10;;
19883;SDS011;10104;50.732;10.174;2023-08-08T00:14:49;4.83;;;3.10;;
19883;SDS011;10104;50.732;10.174;2023-08-08T00:17:10;5.07;;;3.40;;
19883;SDS011;10104;50.732;10.174;2023-08-08T00:19:32;4.33;;;2.83;;
19883;SDS011;10104;50.732;10.174;2023-08-08T00:21:53;5.67;;;2.90;;
19883;SDS011;10104;50.732;10.174;2023-08-08T00:24:15;5.43;;;3.00;;
19883;SDS011;10104;50.732;10.174;2023-08-08T00:26:37;7.73;;;3.03;;
19883;SDS011;10104;50.732;10.174;2023-08-08T00:28:58;4.80;;;3.07;;
19883;SDS011;10104;50.732;10.174;2023-08-08T00:31:20;7.13;;;3.40;;
19883;SDS011;10104;50.732;10.174;2023-08-08T00:33:41;8.37;;;3.30;;
19883;SDS011;10104;50.732;10.174;2023-08-08T00:36:03;4.97;;;2.90;;
19883;SDS011;10104;50.732;10.174;2023-08-08T00:38:25;8.30;;;3.07;;
19883;SDS011;10104;50.732;10.174;2023-08-08T00:40:46;7.47;;;3.63;;
19883;SDS011;10104;50.732;10.174;2023-08-08T00:43:08;6.07;;;3.13;;
19883;SDS011;10104;50.732;10.174;2023-08-08T00:45:29;7.73;;;2.97;;
19883;SDS011;10104;50.732;10.174;2023-08-08T00:47:51;6.13;;;3.10;;
19883;SDS011;10104;50.732;10.174;2023-08-08T00:50:13;9.03;;;3.00;;
19883;SDS011;10104;50.732;10.174;2023-08-08T00:52:35;5.60;;;2.87;;
19883;SDS011;10104;50.732;10.174;2023-08-08T00:54:58;4.60;;;2.80;;
19883;SDS011;10104;50.732;10.174;2023-08-08T00:57:20;4.37;;;2.80;;
19883;SDS011;10104;50.732;10.174;2023-08-08T00:59:42;4.37;;;2.83;;
19883;SDS011;10104;50.732;10.174;2023-08-08T01:02:04;6.80;;;2.87;;
19883;SDS011;10104;50.732;10.174;2023-08-08T01:04:26;4.20;;;2.70;;
19883;SDS011;10104;50.732;10.174;2023-08-08T01:11:40;6.03;;;2.40;;
19883;SDS011;10104;50.732;10.174;2023-08-08T01:14:03;4.30;;;2.37;;
19883;SDS011;10104;50.732;10.174;2023-08-08T01:16:27;4.60;;;2.57;;
19883;SDS011;10104;50.732;10.174;2023-08-08T01:18:50;5.37;;;2.63;;
19883;SDS011;10104;50.732;10.174;2023-08-08T01:21:14;5.33;;;2.60;;
19883;SDS011;10104;50.732;10.174;2023-08-08T01:23:45;5.20;;;2.47;;
19883;SDS011;10104;50.732;10.174;2023-08-08T01:26:11;6.33;;;2.70;;
19883;SDS011;10104;50.732;10.174;2023-08-08T01:28:34;3.53;;;2.13;;
19883;SDS011;10104;50.732;10.174;2023-08-08T01:30:56;8.80;;;2.90;;
19883;SDS011;10104;50.732;10.174;2023-08-08T01:33:18;4.93;;;2.53;;
19883;SDS011;10104;50.732;10.174;2023-08-08T01:35:39;8.00;;;2.37;;
19883;SDS011;10104;50.732;10.174;2023-08-08T01:38:28;3.87;;;2.60;;
19883;SDS011;10104;50.732;10.174;2023-08-08T01:40:52;3.90;;;2.40;;
19883;SDS011;10104;50.732;10.174;2023-08-08T01:43:15;6.63;;;3.43;;
19883;SDS011;10104;50.732;10.174;2023-08-08T01:45:39;4.87;;;3.13;;
19883;SDS011;10104;50.732;10.174;2023-08-08T01:48:05;7.73;;;3.13;;
19883;SDS011;10104;50.732;10.174;2023-08-08T01:50:27;6.53;;;2.77;;
19883;SDS011;10104;50.732;10.174;2023-08-08T01:52:49;5.80;;;3.47;;
19883;SDS011;10104;50.732;10.174;2023-08-08T01:55:11;7.07;;;3.47;;
19883;SDS011;10104;50.732;10.174;2023-08-08T01:57:33;4.57;;;3.10;;
19883;SDS011;10104;50.732;10.174;2023-08-08T01:59:54;6.87;;;3.20;;
19883;SDS011;10104;50.732;10.174;2023-08-08T02:02:16;6.37;;;3.17;;
19883;SDS011;10104;50.732;10.174;2023-08-08T02:04:38;6.73;;;3.17;;
19883;SDS011;10104;50.732;10.174;2023-08-08T02:07:00;5.73;;;3.00;;
19883;SDS011;10104;50.732;10.174;2023-08-08T02:09:22;6.57;;;2.80;;
19883;SDS011;10104;50.732;10.174;2023-08-08T02:11:43;3.60;;;2.93;;
19883;SDS011;10104;50.732;10.174;2023-08-08T02:14:05;5.73;;;3.53;;
19883;SDS011;10104;50.732;10.174;2023-08-08T02:16:27;7.20;;;3.13;;
19883;SDS011;10104;50.732;10.174;2023-08-08T02:18:48;5.43;;;3.13;;
19883;SDS011;10104;50.732;10.174;2023-08-08T02:21:10;6.27;;;3.50;;
19883;SDS011;10104;50.732;10.174;2023-08-08T02:23:31;6.47;;;3.27;;
19883;SDS011;10104;50.732;10.174;2023-08-08T02:25:53;4.93;;;3.50;;
19883;SDS011;10104;50.732;10.174;2023-08-08T02:28:14;8.33;;;3.60;;
19883;SDS011;10104;50.732;10.174;2023-08-08T02:30:36;6.90;;;3.37;;
19883;SDS011;10104;50.732;10.174;2023-08-08T02:32:58;7.07;;;3.53;;
19883;SDS011;10104;50.732;10.174;2023-08-08T02:35:20;8.53;;;3.47;;
19883;SDS011;10104;50.732;10.174;2023-08-08T02:37:41;6.03;;;3.33;;
19883;SDS011;10104;50.732;10.174;2023-08-08T02:40:04;5.77;;;3.30;;
19883;SDS011;10104;50.732;10.174;2023-08-08T02:42:26;6.43;;;3.23;;
19883;SDS011;10104;50.732;10.174;2023-08-08T02:44:47;4.30;;;3.33;;
19883;SDS011;10104;50.732;10.174;2023-08-08T02:47:09;9.70;;;4.10;;
19883;SDS011;10104;50.732;10.174;2023-08-08T02:49:30;5.97;;;3.87;;
19883;SDS011;10104;50.732;10.174;2023-08-08T02:51:54;5.60;;;3.87;;
19883;SDS011;10104;50.732;10.174;2023-08-08T02:54:16;5.13;;;3.53;;
19883;SDS011;10104;50.732;10.174;2023-08-08T02:56:37;4.87;;;3.30;;
19883;SDS011;10104;50.732;10.174;2023-08-08T02:58:59;5.53;;;2.97;;
19883;SDS011;10104;50.732;10.174;2023-08-08T03:01:20;6.23;;;3.00;;
19883;SDS011;10104;50.732;10.174;2023-08-08T03:03:43;6.80;;;3.90;;
19883;SDS011;10104;50.732;10.174;2023-08-08T03:06:04;5.50;;;3.50;;
19883;SDS011;10104;50.732;10.174;2023-08-08T03:08:26;5.80;;;4.10;;
19883;SDS011;10104;50.732;10.174;2023-08-08T03:10:49;7.03;;;4.00;;
19883;SDS011;10104;50.732;10.174;2023-08-08T03:13:10;6.00;;;3.80;;
19883;SDS011;10104;50.732;10.174;2023-08-08T03:15:32;7.43;;;3.40;;
19883;SDS011;10104;50.732;10.174;2023-08-08T03:17:54;6.27;;;3.67;;
19883;SDS011;10104;50.732;10.174;2023-08-08T03:20:15;8.37;;;3.93;;
19883;SDS011;10104;50.732;10.174;2023-08-08T03:22:37;7.73;;;4.03;;
19883;SDS011;10104;50.732;10.174;2023-08-08T03:24:59;11.83;;;4.17;;
19883;SDS011;10104;50.732;10.174;2023-08-08T03:27:20;6.87;;;3.67;;
19883;SDS011;10104;50.732;10.174;2023-08-08T03:29:42;5.37;;;4.07;;
19883;SDS011;10104;50.732;10.174;2023-08-08T03:32:04;4.67;;;3.67;;
19883;SDS011;10104;50.732;10.174;2023-08-08T03:34:26;6.13;;;3.53;;
19883;SDS011;10104;50.732;10.174;2023-08-08T03:36:48;5.60;;;3.40;;
19883;SDS011;10104;50.732;10.174;2023-08-08T03:39:09;5.60;;;3.47;;
19883;SDS011;10104;50.732;10.174;2023-08-08T03:41:31;3.73;;;3.07;;
19883;SDS011;10104;50.732;10.174;2023-08-08T03:43:52;5.80;;;3.10;;
19883;SDS011;10104;50.732;10.174;2023-08-08T03:46:14;6.27;;;3.37;;
19883;SDS011;10104;50.732;10.174;2023-08-08T03:48:35;6.60;;;3.00;;
19883;SDS011;10104;50.732;10.174;2023-08-08T03:50:57;6.47;;;2.90;;
19883;SDS011;10104;50.732;10.174;2023-08-08T03:53:19;4.33;;;3.10;;
19883;SDS011;10104;50.732;10.174;2023-08-08T03:55:40;6.13;;;3.43;;
19883;SDS011;10104;50.732;10.174;2023-08-08T03:58:02;7.70;;;3.03;;
19883;SDS011;10104;50.732;10.174;2023-08-08T04:00:24;6.40;;;3.43;;
19883;SDS011;10104;50.732;10.174;2023-08-08T04:02:45;5.73;;;2.80;;
19883;SDS011;10104;50.732;10.174;2023-08-08T04:05:07;4.30;;;3.10;;
19883;SDS011;10104;50.732;10.174;2023-08-08T04:07:28;4.87;;;2.83;;
19883;SDS011;10104;50.732;10.174;2023-08-08T04:09:50;6.10;;;2.80;;
19883;SDS011;10104;50.732;10.174;2023-08-08T04:12:11;3.67;;;2.70;;
19883;SDS011;10104;50.732;10.174;2023-08-08T04:14:33;4.23;;;2.90;;
19883;SDS011;10104;50.732;10.174;2023-08-08T04:16:55;4.77;;;2.70;;
19883;SDS011;10104;50.732;10.174;2023-08-08T04:19:16;3.50;;;2.77;;
19883;SDS011;10104;50.732;10.174;2023-08-08T04:21:38;3.43;;;2.80;;
19883;SDS011;10104;50.732;10.174;2023-08-08T04:23:59;5.70;;;2.73;;
19883;SDS011;10104;50.732;10.174;2023-08-08T04:26:21;7.23;;;2.83;;
19883;SDS011;10104;50.732;10.174;2023-08-08T04:28:43;5.27;;;2.77;;
19883;SDS011;10104;50.732;10.174;2023-08-08T04:31:04;4.07;;;2.93;;
19883;SDS011;10104;50.732;10.174;2023-08-08T04:33:26;6.20;;;2.37;;
19883;SDS011;10104;50.732;10.174;2023-08-08T04:35:47;4.70;;;2.57;;
19883;SDS011;10104;50.732;10.174;2023-08-08T04:38:09;4.37;;;2.40;;
19883;SDS011;10104;50.732;10.174;2023-08-08T04:40:30;4.63;;;2.70;;
19883;SDS011;10104;50.732;10.174;2023-08-08T04:42:52;7.67;;;2.40;;
19883;SDS011;10104;50.732;10.174;2023-08-08T04:45:14;5.07;;;2.63;;
19883;SDS011;10104;50.732;10.174;2023-08-08T04:47:36;4.00;;;2.40;;
19883;SDS011;10104;50.732;10.174;2023-08-08T04:49:57;4.00;;;2.37;;
19883;SDS011;10104;50.732;10.174;2023-08-08T04:52:19;5.57;;;2.60;;
19883;SDS011;10104;50.732;10.174;2023-08-08T04:54:40;3.53;;;2.60;;
19883;SDS011;10104;50.732;10.174;2023-08-08T04:57:02;4.13;;;2.40;;
19883;SDS011;10104;50.732;10.174;2023-08-08T04:59:23;3.77;;;2.30;;
19883;SDS011;10104;50.732;10.174;2023-08-08T05:01:46;4.90;;;2.43;;
19883;SDS011;10104;50.732;10.174;2023-08-08T05:04:08;4.83;;;2.40;;
19883;SDS011;10104;50.732;10.174;2023-08-08T05:06:30;5.60;;;2.50;;
19883;SDS011;10104;50.732;10.174;2023-08-08T05:08:52;3.43;;;2.10;;
19883;SDS011;10104;50.732;10.174;2023-08-08T05:11:14;5.10;;;2.50;;
19883;SDS011;10104;50.732;10.174;2023-08-08T05:13:35;4.27;;;2.20;;
19883;SDS011;10104;50.732;10.174;2023-08-08T05:15:57;5.40;;;2.50;;
19883;SDS011;10104;50.732;10.174;2023-08-08T05:18:18;4.87;;;2.20;;
19883;SDS011;10104;50.732;10.174;2023-08-08T05:20:40;2.90;;;2.27;;
19883;SDS011;10104;50.732;10.174;2023-08-08T05:23:02;3.80;;;2.13;;
19883;SDS011;10104;50.732;10.174;2023-08-08T05:25:23;5.30;;;2.50;;
19883;SDS011;10104;50.732;10.174;2023-08-08T05:27:45;4.47;;;2.33;;
19883;SDS011;10104;50.732;10.174;2023-08-08T05:30:06;3.93;;;2.20;;
19883;SDS011;10104;50.732;10.174;2023-08-08T05:32:28;3.63;;;2.20;;
19883;SDS011;10104;50.732;10.174;2023-08-08T05:34:50;4.27;;;2.43;;
19883;SDS011;10104;50.732;10.174;2023-08-08T05:37:12;5.53;;;2.47;;
19883;SDS011;10104;50.732;10.174;2023-08-08T05:39:38;3.10;;;2.30;;
19883;SDS011;10104;50.732;10.174;2023-08-08T05:41:59;5.13;;;2.40;;
19883;SDS011;10104;50.732;10.174;2023-08-08T05:44:21;4.47;;;2.40;;
19883;SDS011;10104;50.732;10.174;2023-08-08T05:46:42;4.37;;;2.43;;
19883;SDS011;10104;50.732;10.174;2023-08-08T05:49:04;4.60;;;2.47;;
19883;SDS011;10104;50.732;10.174;2023-08-08T05:51:25;4.37;;;2.20;;
19883;SDS011;10104;50.732;10.174;2023-08-08T05:53:47;6.60;;;2.60;;
19883;SDS011;10104;50.732;10.174;2023-08-08T05:56:08;7.13;;;2.63;;
19883;SDS011;10104;50.732;10.174;2023-08-08T05:58:30;4.43;;;2.45;;
19883;SDS011;10104;50.732;10.174;2023-08-08T06:00:51;3.27;;;2.37;;
19883;SDS011;10104;50.732;10.174;2023-08-08T06:03:13;4.10;;;2.60;;
19883;SDS011;10104;50.732;10.174;2023-08-08T06:05:35;4.55;;;2.17;;
19883;SDS011;10104;50.732;10.174;2023-08-08T06:07:56;4.32;;;2.55;;
19883;SDS011;10104;50.732;10.174;2023-08-08T06:10:18;5.53;;;2.50;;
19883;SDS011;10104;50.732;10.174;2023-08-08T06:12:39;3.22;;;2.50;;
19883;SDS011;10104;50.732;10.174;2023-08-08T06:15:01;3.15;;;2.30;;
19883;SDS011;10104;50.732;10.174;2023-08-08T06:17:23;3.95;;;2.65;;
19883;SDS011;10104;50.732;10.174;2023-08-08T06:19:44;4.72;;;2.67;;
19883;SDS011;10104;50.732;10.174;2023-08-08T06:22:06;4.95;;;2.65;;
19883;SDS011;10104;50.732;10.174;2023-08-08T06:24:28;3.78;;;2.50;;
19883;SDS011;10104;50.732;10.174;2023-08-08T06:26:49;4.63;;;2.53;;
19883;SDS011;10104;50.732;10.174;2023-08-08T06:29:11;5.05;;;2.72;;
19883;SDS011;10104;50.732;10.174;2023-08-08T06:31:35;5.75;;;2.63;;
19883;SDS011;10104;50.732;10.174;2023-08-08T06:33:56;5.28;;;2.67;;
19883;SDS011;10104;50.732;10.174;2023-08-08T06:36:18;6.55;;;2.75;;
19883;SDS011;10104;50.732;10.174;2023-08-08T06:38:40;4.10;;;2.60;;
19883;SDS011;10104;50.732;10.174;2023-08-08T06:41:02;6.28;;;2.67;;
19883;SDS011;10104;50.732;10.174;2023-08-08T06:43:24;4.80;;;2.75;;
19883;SDS011;10104;50.732;10.174;2023-08-08T06:45:46;4.05;;;2.25;;
19883;SDS011;10104;50.732;10.174;2023-08-08T06:48:07;7.65;;;2.30;;
19883;SDS011;10104;50.732;10.174;2023-08-08T06:50:29;4.90;;;2.00;;
19883;SDS011;10104;50.732;10.174;2023-08-08T06:52:51;4.75;;;2.10;;
19883;SDS011;10104;50.732;10.174;2023-08-08T06:55:13;5.07;;;2.05;;
19883;SDS011;10104;50.732;10.174;2023-08-08T06:57:34;4.47;;;2.30;;
19883;SDS011;10104;50.732;10.174;2023-08-08T06:59:56;4.22;;;1.70;;
19883;SDS011;10104;50.732;10.174;2023-08-08T07:02:19;7.13;;;2.25;;
19883;SDS011;10104;50.732;10.174;2023-08-08T07:04:41;4.40;;;2.08;;
19883;SDS011;10104;50.732;10.174;2023-08-08T07:07:03;6.75;;;1.95;;
19883;SDS011;10104;50.732;10.174;2023-08-08T07:09:24;3.35;;;2.00;;
19883;SDS011;10104;50.732;10.174;2023-08-08T07:11:46;3.15;;;1.90;;
19883;SDS011;10104;50.732;10.174;2023-08-08T07:14:07;4.10;;;1.90;;
19883;SDS011;10104;50.732;10.174;2023-08-08T07:16:29;3.55;;;2.00;;
19883;SDS011;10104;50.732;10.174;2023-08-08T07:18:50;2.65;;;1.73;;
19883;SDS011;10104;50.732;10.174;2023-08-08T07:21:15;4.88;;;2.10;;
19883;SDS011;10104;50.732;10.174;2023-08-08T07:23:36;3.90;;;1.75;;
19883;SDS011;10104;50.732;10.174;2023-08-08T07:25:58;3.63;;;2.20;;
19883;SDS011;10104;50.732;10.174;2023-08-08T07:28:19;3.30;;;2.10;;
19883;SDS011;10104;50.732;10.174;2023-08-08T07:30:41;3.92;;;1.98;;
19883;SDS011;10104;50.732;10.174;2023-08-08T07:33:02;2.83;;;2.00;;
19883;SDS011;10104;50.732;10.174;2023-08-08T07:35:24;4.85;;;2.25;;
19883;SDS011;10104;50.732;10.174;2023-08-08T07:37:45;4.00;;;2.22;;
19883;SDS011;10104;50.732;10.174;2023-08-08T07:40:13;2.33;;;1.90;;
19883;SDS011;10104;50.732;10.174;2023-08-08T07:42:36;6.22;;;2.33;;
19883;SDS011;10104;50.732;10.174;2023-08-08T07:44:57;2.95;;;1.85;;
19883;SDS011;10104;50.732;10.174;2023-08-08T07:47:19;3.58;;;2.03;;
19883;SDS011;10104;50.732;10.174;2023-08-08T07:49:40;2.95;;;1.65;;
19883;SDS011;10104;50.732;10.174;2023-08-08T07:52:02;5.63;;;1.80;;
19883;SDS011;10104;50.732;10.174;2023-08-08T07:54:24;2.30;;;1.73;;
19883;SDS011;10104;50.732;10.174;2023-08-08T07:56:45;3.92;;;1.90;;
19883;SDS011;10104;50.732;10.174;2023-08-08T07:59:07;3.00;;;1.48;;
19883;SDS011;10104;50.732;10.174;2023-08-08T08:01:29;3.97;;;1.88;;
19883;SDS011;10104;50.732;10.174;2023-08-08T08:03:51;2.50;;;1.80;;
19883;SDS011;10104;50.732;10.174;2023-08-08T08:06:12;6.20;;;1.90;;
19883;SDS011;10104;50.732;10.174;2023-08-08T08:08:34;3.38;;;1.67;;
19883;SDS011;10104;50.732;10.174;2023-08-08T08:10:55;4.43;;;2.10;;
19883;SDS011;10104;50.732;10.174;2023-08-08T08:13:17;4.05;;;2.10;;
19883;SDS011;10104;50.732;10.174;2023-08-08T08:15:39;3.22;;;2.10;;
19883;SDS011;10104;50.732;10.174;2023-08-08T08:18:00;4.35;;;2.22;;
19883;SDS011;10104;50.732;10.174;2023-08-08T08:20:22;2.47;;;2.00;;
19883;SDS011;10104;50.732;10.174;2023-08-08T08:22:44;4.82;;;1.98;;
19883;SDS011;10104;50.732;10.174;2023-08-08T08:25:06;3.80;;;1.80;;
19883;SDS011;10104;50.732;10.174;2023-08-08T08:27:30;4.68;;;2.03;;
19883;SDS011;10104;50.732;10.174;2023-08-08T08:29:51;2.80;;;1.70;;
19883;SDS011;10104;50.732;10.174;2023-08-08T08:32:13;4.68;;;2.00;;
19883;SDS011;10104;50.732;10.174;2023-08-08T08:34:34;2.58;;;1.95;;
19883;SDS011;10104;50.732;10.174;2023-08-08T08:36:56;3.83;;;1.98;;
19883;SDS011;10104;50.732;10.174;2023-08-08T08:39:18;3.85;;;1.77;;
19883;SDS011;10104;50.732;10.174;2023-08-08T08:41:41;5.13;;;2.00;;
19883;SDS011;10104;50.732;10.174;2023-08-08T08:44:08;4.30;;;1.92;;
19883;SDS011;10104;50.732;10.174;2023-08-08T08:46:30;4.90;;;1.77;;
19883;SDS011;10104;50.732;10.174;2023-08-08T08:48:54;2.17;;;1.60;;
19883;SDS011;10104;50.732;10.174;2023-08-08T08:51:18;3.55;;;1.70;;
19883;SDS011;10104;50.732;10.174;2023-08-08T08:53:39;1.95;;;1.60;;
19883;SDS011;10104;50.732;10.174;2023-08-08T08:56:04;4.47;;;1.83;;
19883;SDS011;10104;50.732;10.174;2023-08-08T08:58:26;2.92;;;1.92;;
19883;SDS011;10104;50.732;10.174;2023-08-08T09:00:49;2.53;;;1.85;;
19883;SDS011;10104;50.732;10.174;2023-08-08T09:05:34;5.03;;;2.03;;
19883;SDS011;10104;50.732;10.174;2023-08-08T09:07:56;5.35;;;1.75;;
19883;SDS011;10104;50.732;10.174;2023-08-08T09:10:19;3.15;;;1.70;;
19883;SDS011;10104;50.732;10.174;2023-08-08T09:12:41;2.92;;;1.70;;
19883;SDS011;10104;50.732;10.174;2023-08-08T09:15:02;3.55;;;1.70;;
19883;SDS011;10104;50.732;10.174;2023-08-08T09:17:25;4.75;;;1.60;;
19883;SDS011;10104;50.732;10.174;2023-08-08T09:20:06;4.60;;;1.70;;
19883;SDS011;10104;50.732;10.174;2023-08-08T09:22:28;2.47;;;1.48;;
19883;SDS011;10104;50.732;10.174;2023-08-08T09:24:50;3.58;;;1.70;;
19883;SDS011;10104;50.732;10.174;2023-08-08T09:27:12;1.58;;;1.30;;
19883;SDS011;10104;50.732;10.174;2023-08-08T09:29:34;3.35;;;1.60;;
19883;SDS011;10104;50.732;10.174;2023-08-08T09:31:56;3.67;;;1.60;;
19883;SDS011;10104;50.732;10.174;2023-08-08T09:34:18;2.30;;;1.30;;
19883;SDS011;10104;50.732;10.174;2023-08-08T09:36:45;2.97;;;1.60;;
19883;SDS011;10104;50.732;10.174;2023-08-08T09:39:08;2.85;;;1.52;;
19883;SDS011;10104;50.732;10.174;2023-08-08T09:41:29;2.65;;;1.48;;
19883;SDS011;10104;50.732;10.174;2023-08-08T09:43:52;3.92;;;1.65;;
19883;SDS011;10104;50.732;10.174;2023-08-08T09:46:14;3.10;;;1.55;;
19883;SDS011;10104;50.732;10.174;2023-08-08T09:48:37;3.95;;;1.73;;
19883;SDS011;10104;50.732;10.174;2023-08-08T09:51:00;2.88;;;1.52;;
19883;SDS011;10104;50.732;10.174;2023-08-08T09:53:22;3.42;;;1.50;;
19883;SDS011;10104;50.732;10.174;2023-08-08T09:55:44;5.53;;;1.73;;
19883;SDS011;10104;50.732;10.174;2023-08-08T09:58:06;5.88;;;1.60;;
19883;SDS011;10104;50.732;10.174;2023-08-08T10:00:29;2.60;;;1.52;;
19883;SDS011;10104;50.732;10.174;2023-08-08T10:02:52;2.92;;;1.70;;
19883;SDS011;10104;50.732;10.174;2023-08-08T10:05:14;4.82;;;1.73;;
19883;SDS011;10104;50.732;10.174;2023-08-08T10:07:36;4.15;;;1.60;;
19883;SDS011;10104;50.732;10.174;2023-08-08T10:09:57;2.72;;;1.60;;
19883;SDS011;10104;50.732;10.174;2023-08-08T10:12:20;3.03;;;1.50;;
19883;SDS011;10104;50.732;10.174;2023-08-08T10:14:42;2.08;;;1.40;;
19883;SDS011;10104;50.732;10.174;2023-08-08T10:17:04;5.07;;;2.20;;
19883;SDS011;10104;50.732;10.174;2023-08-08T10:19:26;3.05;;;1.60;;
19883;SDS011;10104;50.732;10.174;2023-08-08T10:21:48;2.10;;;1.20;;
19883;SDS011;10104;50.732;10.174;2023-08-08T10:24:09;2.95;;;1.55;;
19883;SDS011;10104;50.732;10.174;2023-08-08T10:26:32;1.55;;;1.20;;
19883;SDS011;10104;50.732;10.174;2023-08-08T10:28:57;3.72;;;1.45;;
19883;SDS011;10104;50.732;10.174;2023-08-08T10:31:20;3.20;;;1.70;;
19883;SDS011;10104;50.732;10.174;2023-08-08T10:33:43;3.72;;;1.70;;
19883;SDS011;10104;50.732;10.174;2023-08-08T10:36:05;2.05;;;1.60;;
19883;SDS011;10104;50.732;10.174;2023-08-08T10:41:13;2.78;;;1.60;;
19883;SDS011;10104;50.732;10.174;2023-08-08T10:43:37;3.25;;;1.50;;
19883;SDS011;10104;50.732;10.174;2023-08-08T10:46:02;2.30;;;1.60;;
19883;SDS011;10104;50.732;10.174;2023-08-08T10:48:34;2.83;;;1.70;;
19883;SDS011;10104;50.732;10.174;2023-08-08T10:50:57;3.60;;;2.13;;
19883;SDS011;10104;50.732;10.174;2023-08-08T10:53:22;2.72;;;1.48;;
19883;SDS011;10104;50.732;10.174;2023-08-08T10:55:44;3.20;;;1.52;;
19883;SDS011;10104;50.732;10.174;2023-08-08T10:58:07;5.22;;;1.67;;
19883;SDS011;10104;50.732;10.174;2023-08-08T11:00:33;5.07;;;1.75;;
19883;SDS011;10104;50.732;10.174;2023-08-08T11:02:57;4.78;;;1.70;;
19883;SDS011;10104;50.732;10.174;2023-08-08T11:05:19;4.88;;;1.60;;
19883;SDS011;10104;50.732;10.174;2023-08-08T11:07:41;2.65;;;1.60;;
19883;SDS011;10104;50.732;10.174;2023-08-08T11:10:04;2.00;;;1.45;;
19883;SDS011;10104;50.732;10.174;2023-08-08T11:12:27;5.43;;;1.65;;
19883;SDS011;10104;50.732;10.174;2023-08-08T11:14:48;3.58;;;1.35;;
19883;SDS011;10104;50.732;10.174;2023-08-08T11:17:10;3.42;;;1.30;;
19883;SDS011;10104;50.732;10.174;2023-08-08T11:19:38;3.60;;;1.60;;
19883;SDS011;10104;50.732;10.174;2023-08-08T11:22:00;2.70;;;1.50;;
19883;SDS011;10104;50.732;10.174;2023-08-08T11:24:34;2.78;;;1.70;;
19883;SDS011;10104;50.732;10.174;2023-08-08T11:26:58;3.03;;;1.67;;
19883;SDS011;10104;50.732;10.174;2023-08-08T11:29:20;4.75;;;1.73;;
19883;SDS011;10104;50.732;10.174;2023-08-08T11:31:42;4.15;;;1.50;;
19883;SDS011;10104;50.732;10.174;2023-08-08T11:34:03;3.22;;;1.58;;
19883;SDS011;10104;50.732;10.174;2023-08-08T11:36:32;2.47;;;1.63;;
19883;SDS011;10104;50.732;10.174;2023-08-08T11:38:56;3.80;;;1.52;;
19883;SDS011;10104;50.732;10.174;2023-08-08T11:41:20;2.85;;;1.65;;
19883;SDS011;10104;50.732;10.174;2023-08-08T11:43:44;4.28;;;1.60;;
19883;SDS011;10104;50.732;10.174;2023-08-08T11:46:13;2.78;;;1.42;;
19883;SDS011;10104;50.732;10.174;2023-08-08T11:48:37;4.30;;;1.75;;
19883;SDS011;10104;50.732;10.174;2023-08-08T11:50:58;3.83;;;1.60;;
19883;SDS011;10104;50.732;10.174;2023-08-08T11:53:20;3.78;;;1.65;;
19883;SDS011;10104;50.732;10.174;2023-08-08T11:55:44;3.08;;;1.60;;
19883;SDS011;10104;50.732;10.174;2023-08-08T11:58:06;4.20;;;1.70;;
19883;SDS011;10104;50.732;10.174;2023-08-08T12:00:28;3.22;;;1.60;;
19883;SDS011;10104;50.732;10.174;2023-08-08T12:02:52;2.78;;;1.50;;
19883;SDS011;10104;50.732;10.174;2023-08-08T12:05:14;3.08;;;1.50;;
19883;SDS011;10104;50.732;10.174;2023-08-08T12:07:43;5.60;;;1.77;;
19883;SDS011;10104;50.732;10.174;2023-08-08T12:10:13;5.18;;;1.85;;
19883;SDS011;10104;50.732;10.174;2023-08-08T12:12:37;3.17;;;1.80;;
19883;SDS011;10104;50.732;10.174;2023-08-08T12:15:03;3.95;;;1.80;;
19883;SDS011;10104;50.732;10.174;2023-08-08T12:17:37;3.42;;;1.40;;
19883;SDS011;10104;50.732;10.174;2023-08-08T12:19:59;6.13;;;1.60;;
19883;SDS011;10104;50.732;10.174;2023-08-08T12:22:21;3.38;;;1.80;;
19883;SDS011;10104;50.732;10.174;2023-08-08T12:24:43;2.63;;;1.63;;
19883;SDS011;10104;50.732;10.174;2023-08-08T12:27:04;3.65;;;1.80;;
19883;SDS011;10104;50.732;10.174;2023-08-08T12:29:26;4.93;;;1.73;;
19883;SDS011;10104;50.732;10.174;2023-08-08T12:31:47;1.92;;;1.50;;
19883;SDS011;10104;50.732;10.174;2023-08-08T12:34:09;3.88;;;1.50;;
19883;SDS011;10104;50.732;10.174;2023-08-08T12:36:31;3.03;;;1.90;;
19883;SDS011;10104;50.732;10.174;2023-08-08T12:38:52;2.97;;;1.70;;
19883;SDS011;10104;50.732;10.174;2023-08-08T12:41:14;3.90;;;1.88;;
19883;SDS011;10104;50.732;10.174;2023-08-08T12:43:36;2.90;;;1.60;;
19883;SDS011;10104;50.732;10.174;2023-08-08T12:45:57;3.65;;;1.50;;
19883;SDS011;10104;50.732;10.174;2023-08-08T12:48:19;2.38;;;1.50;;
19883;SDS011;10104;50.732;10.174;2023-08-08T12:50:41;6.45;;;1.80;;
19883;SDS011;10104;50.732;10.174;2023-08-08T12:53:03;6.00;;;2.05;;
19883;SDS011;10104;50.732;10.174;2023-08-08T12:55:25;2.55;;;1.48;;
19883;SDS011;10104;50.732;10.174;2023-08-08T12:57:47;5.25;;;1.90;;
19883;SDS011;10104;50.732;10.174;2023-08-08T13:00:08;4.82;;;1.77;;
19883;SDS011;10104;50.732;10.174;2023-08-08T13:02:30;4.20;;;2.03;;
19883;SDS011;10104;50.732;10.174;2023-08-08T13:04:52;2.30;;;1.70;;
19883;SDS011;10104;50.732;10.174;2023-08-08T13:07:13;4.70;;;1.90;;
19883;SDS011;10104;50.732;10.174;2023-08-08T13:09:35;3.75;;;1.92;;
19883;SDS011;10104;50.732;10.174;2023-08-08T13:11:56;7.40;;;1.90;;
19883;SDS011;10104;50.732;10.174;2023-08-08T13:14:18;6.60;;;1.70;;
19883;SDS011;10104;50.732;10.174;2023-08-08T13:16:39;2.95;;;1.63;;
19883;SDS011;10104;50.732;10.174;2023-08-08T13:19:01;2.78;;;1.80;;
19883;SDS011;10104;50.732;10.174;2023-08-08T13:21:23;3.72;;;1.48;;
19883;SDS011;10104;50.732;10.174;2023-08-08T13:23:44;2.80;;;1.77;;
19883;SDS011;10104;50.732;10.174;2023-08-08T13:26:07;5.05;;;1.77;;
19883;SDS011;10104;50.732;10.174;2023-08-08T13:28:29;10.02;;;1.83;;
19883;SDS011;10104;50.732;10.174;2023-08-08T13:30:51;1.98;;;1.60;;
19883;SDS011;10104;50.732;10.174;2023-08-08T13:33:12;5.13;;;1.70;;
19883;SDS011;10104;50.732;10.174;2023-08-08T13:35:35;4.97;;;1.75;;
19883;SDS011;10104;50.732;10.174;2023-08-08T13:37:56;2.75;;;1.55;;
19883;SDS011;10104;50.732;10.174;2023-08-08T13:40:18;3.15;;;1.75;;
19883;SDS011;10104;50.732;10.174;2023-08-08T13:42:40;5.95;;;1.88;;
19883;SDS011;10104;50.732;10.174;2023-08-08T13:45:02;4.45;;;1.52;;
19883;SDS011;10104;50.732;10.174;2023-08-08T13:47:23;3.63;;;1.70;;
19883;SDS011;10104;50.732;10.174;2023-08-08T13:49:45;3.53;;;1.70;;
19883;SDS011;10104;50.732;10.174;2023-08-08T13:52:06;5.13;;;1.85;;
19883;SDS011;10104;50.732;10.174;2023-08-08T13:54:29;5.65;;;1.90;;
19883;SDS011;10104;50.732;10.174;2023-08-08T13:56:51;4.40;;;2.00;;
19883;SDS011;10104;50.732;10.174;2023-08-08T13:59:12;4.97;;;1.90;;
19883;SDS011;10104;50.732;10.174;2023-08-08T14:01:34;2.15;;;1.58;;
19883;SDS011;10104;50.732;10.174;2023-08-08T14:03:55;2.95;;;1.58;;
19883;SDS011;10104;50.732;10.174;2023-08-08T14:06:17;2.83;;;1.63;;
19883;SDS011;10104;50.732;10.174;2023-08-08T14:08:38;3.75;;;1.70;;
19883;SDS011;10104;50.732;10.174;2023-08-08T14:11:00;6.13;;;2.22;;
19883;SDS011;10104;50.732;10.174;2023-08-08T14:13:22;7.97;;;3.30;;